createdAt,value
2019-05-22T00:01:43.217Z,44.93
2019-05-22T00:04:15.147Z,43.43
2019-05-22T00:06:46.008Z,42.93
2019-05-22T00:09:21.623Z,46.60
2019-05-22T00:11:52.682Z,45.07
2019-05-22T00:14:24.686Z,44.07
2019-05-22T00:16:56.432Z,47.60
2019-05-22T00:19:26.717Z,49.43
2019-05-22T00:22:01.090Z,53.37
2019-05-22T00:24:32.373Z,54.00
2019-05-22T00:27:04.570Z,64.13
2019-05-22T00:29:35.616Z,70.50
2019-05-22T00:32:07.523Z,71.63
2019-05-22T00:34:38.135Z,74.77
2019-05-22T00:37:09.546Z,77.63
2019-05-22T00:39:40.547Z,78.33
2019-05-22T00:42:11.485Z,80.30
2019-05-22T00:44:43.407Z,79.83
2019-05-22T00:47:14.369Z,79.53
2019-05-22T00:49:46.975Z,78.30
2019-05-22T00:52:22.148Z,79.70
2019-05-22T00:54:55.252Z,80.77
2019-05-22T00:57:37.100Z,82.37
2019-05-22T01:00:10.181Z,80.23
2019-05-22T01:02:41.209Z,88.63
2019-05-22T01:05:11.509Z,81.13
2019-05-22T01:07:42.954Z,79.17
2019-05-22T01:10:14.854Z,69.63
2019-05-22T01:12:46.827Z,65.83
2019-05-22T01:15:21.739Z,63.63
2019-05-22T01:17:52.070Z,64.07
2019-05-22T01:20:24.376Z,63.77
2019-05-22T01:22:59.203Z,61.70
2019-05-22T01:25:31.333Z,71.03
2019-05-22T01:28:02.078Z,60.53
2019-05-22T01:30:36.693Z,59.33
2019-05-22T01:33:11.174Z,55.87
2019-05-22T01:36:00.166Z,58.30
2019-05-22T01:38:31.375Z,55.30
2019-05-22T01:41:10.514Z,54.27
2019-05-22T01:43:42.150Z,50.13
2019-05-22T01:46:12.611Z,60.57
2019-05-22T01:48:43.034Z,61.87
2019-05-22T01:51:14.588Z,61.70
2019-05-22T01:53:46.527Z,58.97
2019-05-22T01:56:18.430Z,56.23
2019-05-22T01:58:49.988Z,54.60
2019-05-22T02:01:22.198Z,52.77
2019-05-22T02:03:59.848Z,50.63
2019-05-22T02:06:30.132Z,51.00
2019-05-22T02:09:09.829Z,46.47
2019-05-22T02:11:41.186Z,47.57
2019-05-22T02:14:15.479Z,47.87
2019-05-22T02:16:56.028Z,44.13
2019-05-22T02:19:18.360Z,41.83
2019-05-22T02:21:49.362Z,41.43
2019-05-22T02:24:20.299Z,41.73
2019-05-22T02:26:51.381Z,42.60
2019-05-22T02:29:22.305Z,40.90
2019-05-22T02:31:55.633Z,40.53
2019-05-22T02:34:26.360Z,38.53
2019-05-22T02:36:57.895Z,36.10
2019-05-22T02:39:35.331Z,38.13
2019-05-22T02:42:15.412Z,42.30
2019-05-22T02:44:47.395Z,36.47
2019-05-22T02:47:21.137Z,32.30
2019-05-22T02:49:51.718Z,32.50
2019-05-22T02:52:23.167Z,30.43
2019-05-22T02:54:53.492Z,31.57
2019-05-22T02:57:23.833Z,30.07
2019-05-22T02:59:54.129Z,27.20
2019-05-22T03:02:24.459Z,26.47
2019-05-22T03:05:07.535Z,27.53
2019-05-22T03:07:39.615Z,23.83
2019-05-22T03:10:12.859Z,24.27
2019-05-22T03:12:43.186Z,22.63
2019-05-22T03:15:16.153Z,23.80
2019-05-22T03:17:48.024Z,20.23
2019-05-22T03:20:23.348Z,20.13
2019-05-22T03:23:27.782Z,18.80
2019-05-22T03:25:58.420Z,16.40
2019-05-22T03:28:28.686Z,18.50
2019-05-22T03:30:59.632Z,17.20
2019-05-22T03:33:29.936Z,15.70
2019-05-22T03:36:07.768Z,15.87
2019-05-22T03:38:40.367Z,14.27
2019-05-22T03:41:12.204Z,12.83
2019-05-22T03:43:45.123Z,12.77
2019-05-22T03:46:33.417Z,12.37
2019-05-22T03:49:04.962Z,11.33
2019-05-22T03:51:36.323Z,14.20
2019-05-22T03:54:07.246Z,13.00
2019-05-22T03:56:41.459Z,9.77
2019-05-22T03:59:12.446Z,10.13
2019-05-22T04:01:45.192Z,9.00
2019-05-22T04:04:20.422Z,10.93
2019-05-22T04:06:52.350Z,8.60
2019-05-22T04:09:24.240Z,8.47
2019-05-22T04:11:55.113Z,12.93
2019-05-22T04:14:30.379Z,10.30
2019-05-22T04:17:00.719Z,8.43
2019-05-22T04:19:47.668Z,15.63
2019-05-22T04:22:03.108Z,22.97
2019-05-22T04:24:33.367Z,20.70
2019-05-22T04:27:05.298Z,22.90
2019-05-22T04:29:37.291Z,26.67
2019-05-22T04:32:15.350Z,26.37
2019-05-22T04:34:46.523Z,27.60
2019-05-22T04:37:17.522Z,28.90
2019-05-22T04:39:49.482Z,27.93
2019-05-22T04:42:20.743Z,26.63
2019-05-22T04:45:15.406Z,27.33
2019-05-22T04:48:03.693Z,27.00
2019-05-22T04:50:33.978Z,28.43
2019-05-22T04:53:04.422Z,32.73
2019-05-22T04:55:34.751Z,34.70
2019-05-22T04:58:06.948Z,31.73
2019-05-22T05:00:37.488Z,40.70
2019-05-22T05:03:08.960Z,45.60
2019-05-22T05:05:43.290Z,38.00
2019-05-22T05:08:15.244Z,40.70
2019-05-22T05:10:48.602Z,39.57
2019-05-22T05:13:19.288Z,37.97
2019-05-22T05:15:49.587Z,43.97
2019-05-22T05:18:19.883Z,44.57
2019-05-22T05:20:50.152Z,51.20
2019-05-22T05:23:20.442Z,42.73
2019-05-22T05:25:50.736Z,45.03
2019-05-22T05:28:21.764Z,40.13
2019-05-22T05:30:52.066Z,29.83
2019-05-22T05:33:22.685Z,28.13
2019-05-22T05:35:53.034Z,25.40
2019-05-22T05:38:36.535Z,27.20
2019-05-22T05:41:07.548Z,27.50
2019-05-22T05:43:38.012Z,25.37
2019-05-22T05:46:08.269Z,23.67
2019-05-22T05:48:38.731Z,22.30
2019-05-22T05:51:14.466Z,25.60
2019-05-22T05:54:11.089Z,20.30
2019-05-22T05:56:43.394Z,21.30
2019-05-22T05:59:14.251Z,23.17
2019-05-22T06:01:46.365Z,23.90
2019-05-22T06:04:33.580Z,25.50
2019-05-22T06:07:00.830Z,24.60
2019-05-22T06:09:31.723Z,26.43
2019-05-22T06:14:21.284Z,23.27
2019-05-22T06:14:36.789Z,24.77
2019-05-22T06:18:04.298Z,23.07
2019-05-22T06:20:35.257Z,26.63
2019-05-22T06:23:26.457Z,29.37
2019-05-22T06:25:58.336Z,27.43
2019-05-22T06:28:31.776Z,32.13
2019-05-22T06:31:04.298Z,36.57
2019-05-22T06:33:36.117Z,26.30
2019-05-22T06:36:13.016Z,28.53
2019-05-22T06:38:57.458Z,28.40
2019-05-22T06:41:29.630Z,26.60
2019-05-22T06:44:30.655Z,28.50
2019-05-22T06:47:01.399Z,27.93
2019-05-22T06:49:37.632Z,24.63
2019-05-22T06:52:08.337Z,26.97
2019-05-22T06:54:39.110Z,22.13
2019-05-22T06:57:11.767Z,23.50
2019-05-22T06:59:43.572Z,21.90
2019-05-22T07:02:15.376Z,24.20
2019-05-22T07:04:46.245Z,22.63
2019-05-22T07:07:17.451Z,20.97
2019-05-22T07:09:48.551Z,22.83
2019-05-22T07:12:20.724Z,23.27
2019-05-22T07:15:08.431Z,23.73
2019-05-22T07:17:39.799Z,23.87
2019-05-22T07:20:11.354Z,19.47
2019-05-22T07:22:41.783Z,20.57
2019-05-22T07:25:12.069Z,20.47
2019-05-22T07:27:42.321Z,21.70
2019-05-22T07:30:12.990Z,21.97
2019-05-22T07:32:43.288Z,23.00
2019-05-22T07:35:13.546Z,24.00
2019-05-22T07:37:45.380Z,24.97
2019-05-22T07:40:15.715Z,26.27
2019-05-22T07:42:46.008Z,22.60
2019-05-22T07:45:16.297Z,21.90
2019-05-22T07:47:46.663Z,21.37
2019-05-22T07:50:16.957Z,19.70
2019-05-22T07:52:47.318Z,16.43
2019-05-22T07:55:17.842Z,19.43
2019-05-22T07:57:50.345Z,16.73
2019-05-22T08:00:27.974Z,19.83
2019-05-22T08:02:58.371Z,14.77
2019-05-22T08:05:29.213Z,13.10
2019-05-22T08:07:59.900Z,15.07
2019-05-22T08:10:30.664Z,15.23
2019-05-22T08:13:01.199Z,12.50
2019-05-22T08:15:31.505Z,13.03
2019-05-22T08:18:01.962Z,11.57
2019-05-22T08:20:32.523Z,10.70
2019-05-22T08:23:03.053Z,13.37
2019-05-22T08:25:35.744Z,12.37
2019-05-22T08:28:06.301Z,10.90
2019-05-22T08:30:36.589Z,11.80
2019-05-22T08:33:09.800Z,17.87
2019-05-22T08:35:40.205Z,11.07
2019-05-22T08:38:10.893Z,12.10
2019-05-22T08:40:41.558Z,13.80
2019-05-22T08:43:12.113Z,10.67
2019-05-22T08:45:42.336Z,10.20
2019-05-22T08:48:13.494Z,11.13
2019-05-22T08:50:45.435Z,12.03
2019-05-22T08:53:16.727Z,9.10
2019-05-22T08:55:47.077Z,8.17
2019-05-22T08:58:17.400Z,7.87
2019-05-22T09:00:47.988Z,7.83
2019-05-22T09:03:18.273Z,8.33
2019-05-22T09:05:48.521Z,8.90
2019-05-22T09:08:18.799Z,5.30
2019-05-22T09:10:49.427Z,8.17
2019-05-22T09:13:19.690Z,6.20
2019-05-22T09:15:50.642Z,7.47
2019-05-22T09:18:21.190Z,11.57
2019-05-22T09:20:52.203Z,6.70
2019-05-22T09:23:22.501Z,7.20
2019-05-22T09:25:53.006Z,5.87
2019-05-22T09:28:23.273Z,6.60
2019-05-22T09:30:53.881Z,7.50
2019-05-22T09:33:24.119Z,7.27
2019-05-22T09:35:54.370Z,6.57
2019-05-22T09:38:24.632Z,5.33
2019-05-22T09:40:54.917Z,8.33
2019-05-22T09:43:25.175Z,4.77
2019-05-22T09:45:55.477Z,5.20
2019-05-22T09:48:25.753Z,4.97
2019-05-22T09:50:56.027Z,6.23
2019-05-22T09:53:27.249Z,5.63
2019-05-22T09:55:57.869Z,4.70
2019-05-22T09:58:28.229Z,5.43
2019-05-22T10:00:58.747Z,6.07
2019-05-22T10:03:29.208Z,5.57
2019-05-22T10:05:59.578Z,7.57
2019-05-22T10:08:30.024Z,4.60
2019-05-22T10:11:00.876Z,5.43
2019-05-22T10:13:32.221Z,5.13
2019-05-22T10:16:02.664Z,4.70
2019-05-22T10:18:33.177Z,7.50
2019-05-22T10:21:03.459Z,7.10
2019-05-22T10:23:33.977Z,6.53
2019-05-22T10:26:04.610Z,6.20
2019-05-22T10:28:35.003Z,7.17
2019-05-22T10:31:07.962Z,6.17
2019-05-22T10:33:39.468Z,8.80
2019-05-22T10:36:09.767Z,7.90
2019-05-22T10:38:40.078Z,7.90
2019-05-22T10:41:10.960Z,9.17
2019-05-22T10:43:41.198Z,9.80
2019-05-22T10:46:11.500Z,7.07
2019-05-22T10:48:41.767Z,7.73
2019-05-22T10:51:12.698Z,8.13
2019-05-22T10:53:42.953Z,11.33
2019-05-22T10:56:13.308Z,10.63
2019-05-22T10:58:43.536Z,9.30
2019-05-22T11:01:14.168Z,10.50
2019-05-22T11:03:44.458Z,11.40
2019-05-22T11:06:14.752Z,10.43
2019-05-22T11:08:45.035Z,8.80
2019-05-22T11:11:16.990Z,9.07
2019-05-22T11:14:00.671Z,10.37
2019-05-22T11:16:20.037Z,12.80
2019-05-22T11:18:50.360Z,12.90
2019-05-22T11:21:20.780Z,12.50
2019-05-22T11:23:53.023Z,11.50
2019-05-22T11:26:23.080Z,12.97
2019-05-22T11:28:53.494Z,13.17
2019-05-22T11:31:23.736Z,12.17
2019-05-22T11:33:54.327Z,12.70
2019-05-22T11:36:24.898Z,13.93
2019-05-22T11:38:55.293Z,10.70
2019-05-22T11:41:25.604Z,12.37
2019-05-22T11:43:55.937Z,15.70
2019-05-22T11:46:26.787Z,11.90
2019-05-22T11:48:57.590Z,13.53
2019-05-22T11:51:27.854Z,13.90
2019-05-22T11:54:08.598Z,15.30
2019-05-22T11:56:30.978Z,14.30
2019-05-22T11:59:01.797Z,16.43
2019-05-22T12:01:32.338Z,15.30
2019-05-22T12:04:03.540Z,18.07
2019-05-22T12:06:33.873Z,15.83
2019-05-22T12:09:04.881Z,17.70
2019-05-22T12:11:35.136Z,15.77
2019-05-22T12:14:06.146Z,17.90
2019-05-22T12:16:37.441Z,14.27
2019-05-22T12:19:07.978Z,17.90
2019-05-22T12:21:38.824Z,15.10
2019-05-22T12:24:26.155Z,17.37
2019-05-22T12:26:41.516Z,16.07
2019-05-22T12:29:11.809Z,15.47
2019-05-22T12:31:42.174Z,16.00
2019-05-22T12:34:12.621Z,19.70
2019-05-22T12:36:43.024Z,20.90
2019-05-22T12:39:13.482Z,18.83
2019-05-22T12:41:43.748Z,22.67
2019-05-22T12:44:14.757Z,18.97
2019-05-22T12:46:45.793Z,20.43
2019-05-22T12:49:16.238Z,23.17
2019-05-22T12:51:47.797Z,25.47
2019-05-22T12:54:18.793Z,22.80
2019-05-22T12:56:49.152Z,20.63
2019-05-22T12:59:20.329Z,24.90
2019-05-22T13:01:52.010Z,24.30
2019-05-22T13:04:23.542Z,24.07
2019-05-22T13:06:54.067Z,26.97
2019-05-22T13:09:24.396Z,27.53
2019-05-22T13:11:55.991Z,26.70
2019-05-22T13:14:26.310Z,26.63
2019-05-22T13:16:57.205Z,27.37
2019-05-22T13:19:28.737Z,25.30
2019-05-22T13:22:00.588Z,26.17
2019-05-22T13:24:30.877Z,24.73
2019-05-22T13:27:01.203Z,23.80
2019-05-22T13:29:31.550Z,21.70
2019-05-22T13:32:01.850Z,23.70
2019-05-22T13:34:32.715Z,24.70
2019-05-22T13:37:03.715Z,26.87
2019-05-22T13:39:34.258Z,28.13
2019-05-22T13:42:04.662Z,25.97
2019-05-22T13:44:35.192Z,24.03
2019-05-22T13:47:07.410Z,26.53
2019-05-22T13:49:39.360Z,30.97
2019-05-22T13:52:09.673Z,24.93
2019-05-22T13:54:40.644Z,24.77
2019-05-22T13:57:11.322Z,24.53
2019-05-22T13:59:41.773Z,27.10
2019-05-22T14:02:12.292Z,23.20
2019-05-22T14:04:42.665Z,27.13
2019-05-22T14:07:13.406Z,24.83
2019-05-22T14:09:44.167Z,24.93
2019-05-22T14:12:14.473Z,27.07
2019-05-22T14:14:44.783Z,23.70
2019-05-22T14:17:16.135Z,22.70
2019-05-22T14:19:46.494Z,26.87
2019-05-22T14:22:17.079Z,24.53
2019-05-22T14:24:47.376Z,24.33
2019-05-22T14:27:17.752Z,25.10
2019-05-22T14:29:48.047Z,26.97
2019-05-22T14:32:18.325Z,26.07
2019-05-22T14:34:48.576Z,31.67
2019-05-22T14:37:18.871Z,30.37
2019-05-22T14:39:49.201Z,25.67
2019-05-22T14:42:19.857Z,29.43
2019-05-22T14:44:50.470Z,28.43
2019-05-22T14:47:20.926Z,29.40
2019-05-22T14:49:51.261Z,26.97
2019-05-22T14:52:21.817Z,25.57
2019-05-22T14:54:52.151Z,30.00
2019-05-22T14:57:22.489Z,25.07
2019-05-22T14:59:52.790Z,27.20
2019-05-22T15:02:23.280Z,25.03
2019-05-22T15:04:53.983Z,26.50
2019-05-22T15:07:24.355Z,24.83
2019-05-22T15:09:54.621Z,28.03
2019-05-22T15:12:25.287Z,28.13
2019-05-22T15:14:55.653Z,25.60
2019-05-22T15:17:32.242Z,26.87
2019-05-22T15:19:58.173Z,23.00
2019-05-22T15:22:28.534Z,27.63
2019-05-22T15:24:58.967Z,26.03
2019-05-22T15:27:29.732Z,24.17
2019-05-22T15:30:00.178Z,22.97
2019-05-22T15:32:30.651Z,24.90
2019-05-22T15:35:00.982Z,24.83
2019-05-22T15:37:31.323Z,24.60
2019-05-22T15:40:02.742Z,22.97
2019-05-22T15:42:39.266Z,24.20
2019-05-22T15:45:16.064Z,24.90
2019-05-22T15:47:56.599Z,24.30
2019-05-22T15:50:26.663Z,22.40
2019-05-22T15:52:57.808Z,21.93
2019-05-22T15:55:30.505Z,18.37
2019-05-22T15:58:00.877Z,23.03
2019-05-22T16:00:35.547Z,26.87
2019-05-22T16:03:22.680Z,28.97
2019-05-22T16:05:54.196Z,26.03
2019-05-22T16:08:24.494Z,27.40
2019-05-22T16:10:59.637Z,29.63
2019-05-22T16:13:28.850Z,26.20
2019-05-22T16:15:59.885Z,27.07
2019-05-22T16:18:31.859Z,26.87
2019-05-22T16:21:04.086Z,24.07
2019-05-22T16:23:36.095Z,25.07
2019-05-22T16:26:08.115Z,24.17
2019-05-22T16:28:39.726Z,28.17
2019-05-22T16:31:10.693Z,21.87
2019-05-22T16:33:42.077Z,26.83
2019-05-22T16:36:12.973Z,17.73
2019-05-22T16:38:43.908Z,22.13
2019-05-22T16:41:14.507Z,24.13
2019-05-22T16:43:49.685Z,21.67
2019-05-22T16:46:17.933Z,29.60
2019-05-22T16:48:49.430Z,22.63
2019-05-22T16:51:20.066Z,23.90
2019-05-22T16:53:54.883Z,21.20
2019-05-22T16:56:26.366Z,19.60
2019-05-22T16:58:56.773Z,22.90
2019-05-22T17:01:27.235Z,16.87
2019-05-22T17:04:02.855Z,24.33
2019-05-22T17:06:33.448Z,23.17
2019-05-22T17:09:05.465Z,20.93
2019-05-22T17:11:35.959Z,21.53
2019-05-22T17:14:06.940Z,18.97
2019-05-22T17:16:39.447Z,19.33
2019-05-22T17:19:25.773Z,18.60
2019-05-22T17:21:41.967Z,15.80
2019-05-22T17:24:13.878Z,19.67
2019-05-22T17:26:44.135Z,18.60
2019-05-22T17:29:14.439Z,18.67
2019-05-22T17:31:44.842Z,16.90
2019-05-22T17:34:35.507Z,19.53
2019-05-22T17:37:11.913Z,16.50
2019-05-22T17:39:44.700Z,17.67
2019-05-22T17:42:16.423Z,19.63
2019-05-22T17:44:50.768Z,15.67
2019-05-22T17:47:21.902Z,17.50
2019-05-22T17:49:52.993Z,14.80
2019-05-22T17:52:23.349Z,17.03
2019-05-22T17:54:53.721Z,14.67
2019-05-22T17:57:24.571Z,15.27
2019-05-22T17:59:55.804Z,13.70
2019-05-22T18:02:27.994Z,11.40
2019-05-22T18:04:58.281Z,12.10
2019-05-22T18:07:28.985Z,13.00
2019-05-22T18:09:59.243Z,12.97
2019-05-22T18:12:30.018Z,12.97
2019-05-22T18:15:01.062Z,12.77
2019-05-22T18:17:31.988Z,13.07
2019-05-22T18:20:02.962Z,15.90
2019-05-22T18:22:33.586Z,11.70
2019-05-22T18:25:04.818Z,15.17
2019-05-22T18:27:35.145Z,13.70
2019-05-22T18:30:07.341Z,17.77
2019-05-22T18:32:40.647Z,12.07
2019-05-22T18:35:12.681Z,10.80
2019-05-22T18:37:42.965Z,12.17
2019-05-22T18:40:13.856Z,11.90
2019-05-22T18:42:44.193Z,10.20
2019-05-22T18:45:14.443Z,7.97
2019-05-22T18:47:44.838Z,9.77
2019-05-22T18:50:15.172Z,13.53
2019-05-22T18:52:47.563Z,13.57
2019-05-22T18:55:18.257Z,10.27
2019-05-22T18:57:48.654Z,10.17
2019-05-22T19:00:22.545Z,14.77
2019-05-22T19:02:53.135Z,12.73
2019-05-22T19:05:26.867Z,15.13
2019-05-22T19:07:57.139Z,14.47
2019-05-22T19:10:27.989Z,14.83
2019-05-22T19:12:58.314Z,12.63
2019-05-22T19:15:28.809Z,11.00
2019-05-22T19:17:59.313Z,12.37
2019-05-22T19:20:29.775Z,8.37
2019-05-22T19:23:01.717Z,11.03
2019-05-22T19:25:32.847Z,11.70
2019-05-22T19:28:03.205Z,8.10
2019-05-22T19:30:33.820Z,9.40
2019-05-22T19:33:04.630Z,9.43
2019-05-22T19:35:34.955Z,10.40
2019-05-22T19:38:06.143Z,12.17
2019-05-22T19:40:36.840Z,9.30
2019-05-22T19:43:07.764Z,9.10
2019-05-22T19:45:38.182Z,8.30
2019-05-22T19:48:08.643Z,7.53
2019-05-22T19:50:38.922Z,7.03
2019-05-22T19:53:18.875Z,9.33
2019-05-22T19:55:42.107Z,9.37
2019-05-22T19:58:13.223Z,10.93
2019-05-22T20:00:44.521Z,7.20
2019-05-22T20:03:15.187Z,10.83
2019-05-22T20:05:45.738Z,8.23
2019-05-22T20:08:16.590Z,8.57
2019-05-22T20:10:46.949Z,11.00
2019-05-22T20:13:17.941Z,8.03
2019-05-22T20:15:48.414Z,10.53
2019-05-22T20:18:18.928Z,7.83
2019-05-22T20:20:49.782Z,6.10
2019-05-22T20:23:34.693Z,7.43
2019-05-22T20:25:52.876Z,13.37
2019-05-22T20:28:23.792Z,7.83
2019-05-22T20:30:54.452Z,8.83
2019-05-22T20:33:27.125Z,7.10
2019-05-22T20:35:57.124Z,6.77
2019-05-22T20:38:27.849Z,10.33
2019-05-22T20:40:58.099Z,6.10
2019-05-22T20:43:29.332Z,9.60
2019-05-22T20:46:00.756Z,9.73
2019-05-22T20:48:31.053Z,9.70
2019-05-22T20:51:03.781Z,9.33
2019-05-22T20:53:52.425Z,8.73
2019-05-22T20:56:07.629Z,9.93
2019-05-22T20:58:39.764Z,7.60
2019-05-22T21:01:12.114Z,5.83
2019-05-22T21:03:44.146Z,7.97
2019-05-22T21:06:15.597Z,5.00
2019-05-22T21:08:46.765Z,13.93
2019-05-22T21:11:17.702Z,7.27
2019-05-22T21:13:47.959Z,7.73
2019-05-22T21:16:18.575Z,8.70
2019-05-22T21:18:50.769Z,7.03
2019-05-22T21:21:23.111Z,10.30
2019-05-22T21:24:07.671Z,6.90
2019-05-22T21:26:32.421Z,9.63
2019-05-22T21:29:02.962Z,8.87
2019-05-22T21:31:33.511Z,12.03
2019-05-22T21:34:03.784Z,10.60
2019-05-22T21:36:34.315Z,11.50
2019-05-22T21:39:07.548Z,7.83
2019-05-22T21:41:37.796Z,8.57
2019-05-22T21:44:08.054Z,6.97
2019-05-22T21:46:38.579Z,10.33
2019-05-22T21:49:10.578Z,6.97
2019-05-22T21:51:41.221Z,7.70
2019-05-22T21:54:12.136Z,9.60
2019-05-22T21:56:42.857Z,8.00
2019-05-22T21:59:13.140Z,8.57
2019-05-22T22:02:03.347Z,9.03
2019-05-22T22:04:51.451Z,9.60
2019-05-22T22:07:40.443Z,6.13
2019-05-22T22:10:10.284Z,5.87
2019-05-22T22:12:42.875Z,7.40
2019-05-22T22:15:15.243Z,10.47
2019-05-22T22:17:47.233Z,5.67
2019-05-22T22:20:19.161Z,9.87
2019-05-22T22:22:49.476Z,6.50
2019-05-22T22:25:19.900Z,9.90
2019-05-22T22:27:50.172Z,8.83
2019-05-22T22:30:27.584Z,10.70
2019-05-22T22:32:58.477Z,11.90
2019-05-22T22:35:29.003Z,9.07
2019-05-22T22:37:59.269Z,6.77
2019-05-22T22:40:30.649Z,6.87
2019-05-22T22:43:03.630Z,9.37
2019-05-22T22:45:40.435Z,8.57
2019-05-22T22:48:13.689Z,6.47
2019-05-22T22:50:45.020Z,6.80
2019-05-22T22:53:15.924Z,11.23
2019-05-22T22:55:47.918Z,8.47
2019-05-22T22:58:19.398Z,8.57
2019-05-22T23:00:51.988Z,7.13
2019-05-22T23:03:24.437Z,7.87
2019-05-22T23:05:54.859Z,8.97
2019-05-22T23:08:31.172Z,13.30
2019-05-22T23:11:01.464Z,7.13
2019-05-22T23:13:31.963Z,7.03
2019-05-22T23:16:02.256Z,10.87
2019-05-22T23:18:47.015Z,9.70
2019-05-22T23:21:18.668Z,9.00
2019-05-22T23:23:47.841Z,9.53
2019-05-22T23:26:19.513Z,12.73
2019-05-22T23:28:49.853Z,5.90
2019-05-22T23:31:20.118Z,9.80
2019-05-22T23:33:51.219Z,9.37
2019-05-22T23:36:21.530Z,8.30
2019-05-22T23:38:52.951Z,10.90
2019-05-22T23:41:24.105Z,8.47
2019-05-22T23:43:54.402Z,7.80
2019-05-22T23:46:25.466Z,6.63
2019-05-22T23:48:55.753Z,7.47
2019-05-22T23:51:26.039Z,8.03
2019-05-22T23:53:58.003Z,7.13
2019-05-22T23:56:28.355Z,8.33
2019-05-22T23:58:58.633Z,8.30
